# Tabular Observed and Forecast Hydrograph Information
#
# Location: Klamath River - Orleans (ONSC1)
#
# File Generation Time: 05/07/2026 at 08:03 AM PDT
# Data Interval: 1 Hour
#
# Most Recent Date & Time of Maximum Observed: 05/04/2026 at 07:00 PM PDT
# Maximum Observed Stage: 4.76 Feet
# Maximum Observed Flow: 4833 cfs
#
# Earliest Date & Time of Maximum Forecast: 05/07/2026 at 08:00 AM PDT
# Maximum Forecast Stage: 4.59 Feet
# Maximum Forecast Flow: 4594 cfs
#
# OBSERVED
#
# Date & Time (Local) Stage (Feet) Flow (cfs) Trend Observed Status
# ---------------------------------------------------------------------------------
05/02/2026 08 AM PDT 4.75 4819 Normal
05/02/2026 09 AM PDT 4.75 4819 0 Normal
05/02/2026 10 AM PDT 4.76 4833 + Normal
05/02/2026 11 AM PDT 4.75 4819 - Normal
05/02/2026 12 PM PDT 4.74 4804 - Normal
05/02/2026 01 PM PDT 4.75 4819 + Normal
05/02/2026 02 PM PDT 4.75 4819 0 Normal
05/02/2026 03 PM PDT 4.74 4804 - Normal
05/02/2026 04 PM PDT 4.76 4833 + Normal
05/02/2026 05 PM PDT 4.76 4833 0 Normal
05/02/2026 06 PM PDT 4.74 4804 - Normal
05/02/2026 07 PM PDT 4.75 4819 + Normal
05/02/2026 08 PM PDT 4.73 4790 - Normal
05/02/2026 09 PM PDT 4.74 4804 + Normal
05/02/2026 10 PM PDT 4.74 4804 0 Normal
05/02/2026 11 PM PDT 4.74 4804 0 Normal
05/03/2026 12 AM PDT 4.73 4790 - Normal
05/03/2026 01 AM PDT 4.73 4790 0 Normal
05/03/2026 02 AM PDT 4.73 4790 0 Normal
05/03/2026 03 AM PDT 4.72 4776 - Normal
05/03/2026 04 AM PDT 4.71 4762 - Normal
05/03/2026 05 AM PDT 4.71 4762 0 Normal
05/03/2026 06 AM PDT 4.71 4762 0 Normal
05/03/2026 07 AM PDT 4.72 4776 + Normal
05/03/2026 08 AM PDT 4.71 4762 - Normal
05/03/2026 09 AM PDT 4.74 4804 + Normal
05/03/2026 10 AM PDT 4.73 4790 - Normal
05/03/2026 11 AM PDT 4.75 4819 + Normal
05/03/2026 12 PM PDT 4.74 4804 - Normal
05/03/2026 01 PM PDT 4.75 4819 + Normal
05/03/2026 02 PM PDT 4.74 4804 - Normal
05/03/2026 03 PM PDT 4.75 4819 + Normal
05/03/2026 04 PM PDT 4.74 4804 - Normal
05/03/2026 05 PM PDT 4.75 4819 + Normal
05/03/2026 06 PM PDT 4.74 4804 - Normal
05/03/2026 07 PM PDT 4.75 4819 + Normal
05/03/2026 08 PM PDT 4.74 4804 - Normal
05/03/2026 09 PM PDT 4.76 4833 + Normal
05/03/2026 10 PM PDT 4.74 4804 - Normal
05/03/2026 11 PM PDT 4.75 4819 + Normal
05/04/2026 12 AM PDT 4.74 4804 - Normal
05/04/2026 01 AM PDT 4.72 4776 - Normal
05/04/2026 02 AM PDT 4.74 4804 + Normal
05/04/2026 03 AM PDT 4.73 4790 - Normal
05/04/2026 04 AM PDT 4.73 4790 0 Normal
05/04/2026 05 AM PDT 4.73 4790 0 Normal
05/04/2026 06 AM PDT 4.72 4776 - Normal
05/04/2026 07 AM PDT 4.73 4790 + Normal
05/04/2026 08 AM PDT 4.74 4804 + Normal
05/04/2026 09 AM PDT 4.72 4776 - Normal
05/04/2026 10 AM PDT 4.74 4804 + Normal
05/04/2026 11 AM PDT 4.73 4790 - Normal
05/04/2026 12 PM PDT 4.73 4790 0 Normal
05/04/2026 01 PM PDT 4.74 4804 + Normal
05/04/2026 02 PM PDT 4.75 4819 + Normal
05/04/2026 03 PM PDT 4.72 4776 - Normal
05/04/2026 04 PM PDT 4.75 4819 + Normal
05/04/2026 05 PM PDT 4.74 4804 - Normal
05/04/2026 06 PM PDT 4.75 4819 + Normal
05/04/2026 07 PM PDT 4.76 4833 + Normal
05/04/2026 08 PM PDT 4.75 4819 - Normal
05/04/2026 09 PM PDT 4.74 4804 - Normal
05/04/2026 10 PM PDT 4.73 4790 - Normal
05/04/2026 11 PM PDT 4.74 4804 + Normal
05/05/2026 12 AM PDT 4.74 4804 0 Normal
05/05/2026 01 AM PDT 4.72 4776 - Normal
05/05/2026 02 AM PDT 4.72 4776 0 Normal
05/05/2026 03 AM PDT 4.71 4762 - Normal
05/05/2026 04 AM PDT 4.72 4776 + Normal
05/05/2026 05 AM PDT 4.70 4748 - Normal
05/05/2026 06 AM PDT 4.70 4748 0 Normal
05/05/2026 07 AM PDT 4.72 4776 + Normal
05/05/2026 08 AM PDT 4.72 4776 0 Normal
05/05/2026 09 AM PDT 4.73 4790 + Normal
05/05/2026 10 AM PDT 4.73 4790 0 Normal
05/05/2026 11 AM PDT 4.72 4776 - Normal
05/05/2026 12 PM PDT 4.74 4804 + Normal
05/05/2026 01 PM PDT 4.73 4790 - Normal
05/05/2026 02 PM PDT 4.73 4790 0 Normal
05/05/2026 03 PM PDT 4.75 4819 + Normal
05/05/2026 04 PM PDT 4.74 4804 - Normal
05/05/2026 05 PM PDT 4.73 4790 - Normal
05/05/2026 06 PM PDT 4.73 4790 0 Normal
05/05/2026 07 PM PDT 4.71 4762 - Normal
05/05/2026 08 PM PDT 4.70 4748 - Normal
05/05/2026 09 PM PDT 4.72 4776 + Normal
05/05/2026 10 PM PDT 4.69 4734 - Normal
05/05/2026 11 PM PDT 4.70 4748 + Normal
05/06/2026 12 AM PDT 4.69 4734 - Normal
05/06/2026 01 AM PDT 4.68 4720 - Normal
05/06/2026 02 AM PDT 4.66 4692 - Normal
05/06/2026 03 AM PDT 4.67 4706 + Normal
05/06/2026 04 AM PDT 4.66 4692 - Normal
05/06/2026 05 AM PDT 4.66 4692 0 Normal
05/06/2026 06 AM PDT 4.66 4692 0 Normal
05/06/2026 07 AM PDT 4.66 4692 0 Normal
05/06/2026 08 AM PDT 4.66 4692 0 Normal
05/06/2026 09 AM PDT 4.66 4692 0 Normal
05/06/2026 10 AM PDT 4.67 4706 + Normal
05/06/2026 11 AM PDT 4.67 4706 0 Normal
05/06/2026 12 PM PDT 4.65 4678 - Normal
05/06/2026 01 PM PDT 4.66 4692 + Normal
05/06/2026 02 PM PDT 4.66 4692 0 Normal
05/06/2026 03 PM PDT 4.68 4720 + Normal
05/06/2026 04 PM PDT 4.66 4692 - Normal
05/06/2026 05 PM PDT 4.65 4678 - Normal
05/06/2026 06 PM PDT 4.64 4664 - Normal
05/06/2026 07 PM PDT 4.65 4678 + Normal
05/06/2026 08 PM PDT 4.65 4678 0 Normal
05/06/2026 09 PM PDT 4.63 4650 - Normal
05/06/2026 10 PM PDT 4.64 4664 + Normal
05/06/2026 11 PM PDT 4.64 4664 0 Normal
05/07/2026 12 AM PDT 4.61 4622 - Normal
05/07/2026 01 AM PDT 4.62 4636 + Normal
05/07/2026 02 AM PDT 4.60 4608 - Normal
05/07/2026 03 AM PDT 4.61 4622 + Normal
05/07/2026 04 AM PDT 4.61 4622 0 Normal
05/07/2026 05 AM PDT 4.59 4594 - Normal
05/07/2026 06 AM PDT 4.58 4580 - Normal
05/07/2026 07 AM PDT 4.58 4580 0 Normal
#
# FORECAST
#
# Date & Time (Local) Stage (Feet) Flow (cfs) Trend Forecast Status
# ---------------------------------------------------------------------------------
05/07/2026 08 AM PDT 4.59 4594 Normal
05/07/2026 09 AM PDT 4.59 4594 0 Normal
05/07/2026 10 AM PDT 4.58 4580 - Normal
05/07/2026 11 AM PDT 4.58 4580 0 Normal
05/07/2026 12 PM PDT 4.58 4580 0 Normal
05/07/2026 01 PM PDT 4.58 4580 0 Normal
05/07/2026 02 PM PDT 4.57 4566 - Normal
05/07/2026 03 PM PDT 4.57 4566 0 Normal
05/07/2026 04 PM PDT 4.57 4566 0 Normal
05/07/2026 05 PM PDT 4.56 4552 - Normal
05/07/2026 06 PM PDT 4.56 4552 0 Normal
05/07/2026 07 PM PDT 4.56 4552 0 Normal
05/07/2026 08 PM PDT 4.55 4538 - Normal
05/07/2026 09 PM PDT 4.55 4538 0 Normal
05/07/2026 10 PM PDT 4.55 4538 0 Normal
05/07/2026 11 PM PDT 4.55 4538 0 Normal
05/08/2026 12 AM PDT 4.55 4538 0 Normal
05/08/2026 01 AM PDT 4.55 4538 0 Normal
05/08/2026 02 AM PDT 4.54 4524 - Normal
05/08/2026 03 AM PDT 4.54 4524 0 Normal
05/08/2026 04 AM PDT 4.54 4524 0 Normal
05/08/2026 05 AM PDT 4.54 4524 0 Normal
05/08/2026 06 AM PDT 4.54 4524 0 Normal
05/08/2026 07 AM PDT 4.54 4524 0 Normal
05/08/2026 08 AM PDT 4.54 4524 0 Normal
05/08/2026 09 AM PDT 4.53 4511 - Normal
05/08/2026 10 AM PDT 4.53 4511 0 Normal
05/08/2026 11 AM PDT 4.53 4511 0 Normal
05/08/2026 12 PM PDT 4.53 4511 0 Normal
05/08/2026 01 PM PDT 4.53 4511 0 Normal
05/08/2026 02 PM PDT 4.52 4497 - Normal
05/08/2026 03 PM PDT 4.52 4497 0 Normal
05/08/2026 04 PM PDT 4.52 4497 0 Normal
05/08/2026 05 PM PDT 4.52 4497 0 Normal
05/08/2026 06 PM PDT 4.52 4497 0 Normal
05/08/2026 07 PM PDT 4.52 4497 0 Normal
05/08/2026 08 PM PDT 4.51 4483 - Normal
05/08/2026 09 PM PDT 4.51 4483 0 Normal
05/08/2026 10 PM PDT 4.51 4483 0 Normal
05/08/2026 11 PM PDT 4.51 4483 0 Normal
05/09/2026 12 AM PDT 4.51 4483 0 Normal
05/09/2026 01 AM PDT 4.51 4483 0 Normal
05/09/2026 02 AM PDT 4.51 4483 0 Normal
05/09/2026 03 AM PDT 4.50 4469 - Normal
05/09/2026 04 AM PDT 4.50 4469 0 Normal
05/09/2026 05 AM PDT 4.50 4469 0 Normal
05/09/2026 06 AM PDT 4.50 4469 0 Normal
05/09/2026 07 AM PDT 4.50 4469 0 Normal
05/09/2026 08 AM PDT 4.50 4469 0 Normal
05/09/2026 09 AM PDT 4.50 4469 0 Normal
05/09/2026 10 AM PDT 4.49 4455 - Normal
05/09/2026 11 AM PDT 4.49 4455 0 Normal
05/09/2026 12 PM PDT 4.49 4455 0 Normal
05/09/2026 01 PM PDT 4.49 4455 0 Normal
05/09/2026 02 PM PDT 4.49 4455 0 Normal
05/09/2026 03 PM PDT 4.49 4455 0 Normal
05/09/2026 04 PM PDT 4.49 4455 0 Normal
05/09/2026 05 PM PDT 4.49 4455 0 Normal
05/09/2026 06 PM PDT 4.48 4442 - Normal
05/09/2026 07 PM PDT 4.48 4442 0 Normal
05/09/2026 08 PM PDT 4.48 4442 0 Normal
05/09/2026 09 PM PDT 4.48 4442 0 Normal
05/09/2026 10 PM PDT 4.48 4442 0 Normal
05/09/2026 11 PM PDT 4.48 4442 0 Normal
05/10/2026 12 AM PDT 4.48 4442 0 Normal
05/10/2026 01 AM PDT 4.48 4442 0 Normal
05/10/2026 02 AM PDT 4.47 4428 - Normal
05/10/2026 03 AM PDT 4.47 4428 0 Normal
05/10/2026 04 AM PDT 4.47 4428 0 Normal
05/10/2026 05 AM PDT 4.47 4428 0 Normal
05/10/2026 06 AM PDT 4.47 4428 0 Normal
05/10/2026 07 AM PDT 4.47 4428 0 Normal
05/10/2026 08 AM PDT 4.47 4428 0 Normal
05/10/2026 09 AM PDT 4.47 4428 0 Normal
05/10/2026 10 AM PDT 4.47 4428 0 Normal
05/10/2026 11 AM PDT 4.46 4414 - Normal
05/10/2026 12 PM PDT 4.46 4414 0 Normal
05/10/2026 01 PM PDT 4.46 4414 0 Normal
05/10/2026 02 PM PDT 4.46 4414 0 Normal
05/10/2026 03 PM PDT 4.46 4414 0 Normal
05/10/2026 04 PM PDT 4.46 4414 0 Normal
05/10/2026 05 PM PDT 4.46 4414 0 Normal
05/10/2026 06 PM PDT 4.46 4414 0 Normal
05/10/2026 07 PM PDT 4.46 4414 0 Normal
05/10/2026 08 PM PDT 4.45 4400 - Normal
05/10/2026 09 PM PDT 4.45 4400 0 Normal
05/10/2026 10 PM PDT 4.45 4400 0 Normal
05/10/2026 11 PM PDT 4.45 4400 0 Normal
05/11/2026 12 AM PDT 4.45 4400 0 Normal
05/11/2026 01 AM PDT 4.45 4400 0 Normal
05/11/2026 02 AM PDT 4.45 4400 0 Normal
05/11/2026 03 AM PDT 4.45 4400 0 Normal
05/11/2026 04 AM PDT 4.45 4400 0 Normal
05/11/2026 05 AM PDT 4.44 4387 - Normal
05/11/2026 06 AM PDT 4.44 4387 0 Normal
05/11/2026 07 AM PDT 4.44 4387 0 Normal
05/11/2026 08 AM PDT 4.44 4387 0 Normal
05/11/2026 09 AM PDT 4.44 4387 0 Normal
05/11/2026 10 AM PDT 4.44 4387 0 Normal
05/11/2026 11 AM PDT 4.44 4387 0 Normal
05/11/2026 12 PM PDT 4.44 4387 0 Normal
05/11/2026 01 PM PDT 4.43 4373 - Normal
05/11/2026 02 PM PDT 4.43 4373 0 Normal
05/11/2026 03 PM PDT 4.43 4373 0 Normal
05/11/2026 04 PM PDT 4.43 4373 0 Normal
05/11/2026 05 PM PDT 4.43 4373 0 Normal
05/11/2026 06 PM PDT 4.43 4373 0 Normal
05/11/2026 07 PM PDT 4.43 4373 0 Normal
05/11/2026 08 PM PDT 4.43 4373 0 Normal
05/11/2026 09 PM PDT 4.43 4373 0 Normal
05/11/2026 10 PM PDT 4.42 4359 - Normal
05/11/2026 11 PM PDT 4.42 4359 0 Normal
05/12/2026 12 AM PDT 4.42 4359 0 Normal
05/12/2026 01 AM PDT 4.42 4359 0 Normal
05/12/2026 02 AM PDT 4.42 4359 0 Normal
05/12/2026 03 AM PDT 4.42 4359 0 Normal
05/12/2026 04 AM PDT 4.42 4359 0 Normal
05/12/2026 05 AM PDT 4.42 4359 0 Normal
#
# NOTE 1: Stages are rounded to the nearest hundredth (.01) of a foot.
# NOTE 2: Flows are rounded to the nearest (1) cfs.
# NOTE 3: Trends are determined using hourly change in unrounded stage and flow.
# NOTE 4: Maximum Values are determined using unrounded stage and flow.
|